OIHH

Hamadan Airport

Airport
ICAO code
OIHH
IATA Code
HDM
Summary
ICAO Region
MID
ICAO Territory
Location

Hamedan, Hamadan Province

Serving
Hamedan
Elevation
5755 ft
Coordinates
34° 52' 2" N , 48° 32' 16" E
KCC
Metar
Observation
OIHH 070300Z 27002KT 8000 FEW040 OVC090 M01/M02 Q1021 A3016
Station
Hamadan
Date/Time
2022-12-07 03:00:00
Wind direction
270°
Wind speed
02 kts
Lowest cloud amount
few clouds
Temperature
-1°C
Dew point
-2°C
Humidity
92%
QNH
1021 hPa
Weather condition
n/a

Airport 8km north of Hamedan, a city in Iran.

Climatology

Continental climate (Köppen climate classification Dsa). The temperature may drop below −30 °C (−22 °F) on the coldest days. Heavy snowfall is common during winter and this can persist for periods of up to two months. During the short summer, the weather is mild, pleasant, and mostly sunny.

Runways

Designator Length Width Surface Rops
10/28 3234 45 ASP No/No

Airport map

Aerial View

SKYbrary Partners:

Safety knowledge contributed by: